Time;durP1;ratioP1;P1;durP2;ratioP2;P2;SDS_P1;SDS_P2;PMS_P1;PMS_P2;Temp;Humidity;BMP_temperature;BMP_pressure;BME280_temperature;BME280_humidity;BME280_pressure;Samples;Min_cycle;Max_cycle;Signal;HPM_P1;HPM_P2
2021/12/17 00:04:50;;;;;;;44.95;31.65;;;;;;;;;;4992730;28;100351;-71
2021/12/17 00:07:17;;;;;;;55.22;32.03;;;;;;;;;;5009884;28;100886;-71
2021/12/17 00:09:48;;;;;;;50.83;32.40;;;;;;;;;;5008539;28;100590;-71
2021/12/17 00:12:16;;;;;;;46.95;30.50;;;;;;;;;;5009544;28;100858;-71
2021/12/17 00:14:44;;;;;;;65.60;36.30;;;;;;;;;;4999391;28;100385;-71
2021/12/17 00:17:15;;;;;;;65.00;35.83;;;;;;;;;;4988661;28;98631;-71
2021/12/17 00:49:31;;;;;;;62.30;36.17;;;;;;;;;;5004862;28;99384;-71
2021/12/17 00:52:02;;;;;;;66.30;36.70;;;;;;;;;;4990882;28;99779;-71
2021/12/17 00:54:35;;;;;;;63.80;35.53;;;;;;;;;;5009500;28;99559;-71
2021/12/17 00:57:04;;;;;;;58.78;34.78;;;;;;;;;;5007643;28;99969;-70
2021/12/17 00:59:31;;;;;;;55.28;34.47;;;;;;;;;;5009693;28;98914;-71
2021/12/17 01:01:59;;;;;;;59.38;34.55;;;;;;;;;;5007703;28;100896;-71
2021/12/17 01:04:26;;;;;;;57.58;34.72;;;;;;;;;;4992791;28;101116;-71
2021/12/17 01:06:53;;;;;;;61.63;36.65;;;;;;;;;;5004618;28;98611;-71
2021/12/17 01:09:22;;;;;;;71.55;40.25;;;;;;;;;;4991961;28;99595;-71
2021/12/17 01:11:49;;;;;;;63.05;38.88;;;;;;;;;;4988643;28;98606;-71
2021/12/17 01:14:42;;;;;;;60.43;37.13;;;;;;;;;;4973547;28;98792;-71
2021/12/17 01:17:41;;;;;;;55.85;35.60;;;;;;;;;;5004618;28;101631;-71
2021/12/17 01:20:29;;;;;;;66.18;37.40;;;;;;;;;;4990314;28;97887;-72
2021/12/17 01:43:54;;;;;;;67.93;38.20;;;;;;;;;;5005553;28;98569;-71
2021/12/17 01:46:22;;;;;;;58.13;35.75;;;;;;;;;;4988553;28;101675;-72
2021/12/17 01:49:06;;;;;;;61.55;37.42;;;;;;;;;;5007977;28;98663;-72
2021/12/17 01:59:58;;;;;;;67.45;37.85;;;;;;;;;;4979712;28;98823;-72
2021/12/17 02:02:26;;;;;;;63.50;38.23;;;;;;;;;;4994468;28;101397;-72
2021/12/17 02:04:52;;;;;;;61.42;38.42;;;;;;;;;;5006532;28;99260;-71
2021/12/17 02:07:19;;;;;;;54.22;36.53;;;;;;;;;;4984372;28;100328;-71
2021/12/17 02:21:04;;;;;;;53.83;37.50;;;;;;;;;;4988237;28;98683;-70
2021/12/17 02:29:33;;;;;;;63.55;38.22;;;;;;;;;;5009313;28;101608;-70
2021/12/17 02:32:02;;;;;;;57.65;37.75;;;;;;;;;;4999066;28;101705;-70
2021/12/17 02:37:23;;;;;;;63.38;40.50;;;;;;;;;;5005573;28;101531;-71
2021/12/17 02:45:32;;;;;;;77.38;45.78;;;;;;;;;;5006475;28;99361;-70
2021/12/17 02:48:01;;;;;;;68.82;40.15;;;;;;;;;;5009586;28;99583;-70
2021/12/17 02:50:28;;;;;;;64.22;34.75;;;;;;;;;;5006114;28;101354;-71
2021/12/17 02:52:55;;;;;;;37.63;25.17;;;;;;;;;;5005139;28;102241;-71
2021/12/17 02:55:22;;;;;;;49.63;31.85;;;;;;;;;;5005796;28;98641;-70
2021/12/17 02:57:48;;;;;;;45.83;27.90;;;;;;;;;;5002828;28;99561;-70
2021/12/17 03:00:16;;;;;;;33.42;24.33;;;;;;;;;;4987001;28;99560;-71
2021/12/17 03:02:43;;;;;;;31.52;19.38;;;;;;;;;;5005785;28;100552;-71
2021/12/17 03:05:10;;;;;;;29.23;20.38;;;;;;;;;;4997333;28;99265;-71
2021/12/17 03:07:39;;;;;;;28.33;18.42;;;;;;;;;;5004104;28;100074;-71
2021/12/17 03:10:09;;;;;;;36.97;23.10;;;;;;;;;;5005939;28;100001;-71
2021/12/17 03:12:43;;;;;;;30.70;21.35;;;;;;;;;;4992157;28;100072;-70
2021/12/17 03:15:33;;;;;;;28.63;20.95;;;;;;;;;;4993835;28;100537;-71
2021/12/17 03:23:30;;;;;;;35.30;23.65;;;;;;;;;;5001825;28;98673;-71
2021/12/17 03:26:03;;;;;;;36.92;23.77;;;;;;;;;;5019387;28;101745;-71
2021/12/17 03:28:30;;;;;;;39.67;23.85;;;;;;;;;;5005749;28;101873;-70
2021/12/17 03:30:57;;;;;;;41.95;23.00;;;;;;;;;;4994847;28;98563;-70
2021/12/17 03:33:23;;;;;;;46.55;25.73;;;;;;;;;;4988857;28;100303;-70
2021/12/17 03:35:51;;;;;;;36.03;23.85;;;;;;;;;;5005150;28;99298;-70
2021/12/17 03:38:19;;;;;;;36.45;23.17;;;;;;;;;;5022595;28;99969;-70
2021/12/17 03:40:46;;;;;;;38.35;24.10;;;;;;;;;;5003407;28;102074;-71
2021/12/17 03:43:30;;;;;;;36.97;23.20;;;;;;;;;;4985221;28;98987;-70
2021/12/17 03:45:58;;;;;;;45.30;24.40;;;;;;;;;;4986775;28;101415;-71
2021/12/17 03:48:25;;;;;;;47.95;24.40;;;;;;;;;;5004109;28;101299;-71
2021/12/17 03:50:51;;;;;;;46.22;25.35;;;;;;;;;;5003984;28;98634;-71
2021/12/17 03:53:18;;;;;;;62.88;28.40;;;;;;;;;;5010298;28;99857;-71
2021/12/17 03:55:44;;;;;;;44.67;25.30;;;;;;;;;;5005800;28;98749;-70
2021/12/17 03:58:10;;;;;;;42.17;24.55;;;;;;;;;;5018502;28;101716;-70
2021/12/17 04:00:42;;;;;;;31.45;17.35;;;;;;;;;;4986621;28;101260;-72
2021/12/17 04:03:09;;;;;;;29.85;17.70;;;;;;;;;;5005062;28;98980;-69
2021/12/17 04:05:45;;;;;;;24.75;16.90;;;;;;;;;;5002417;28;99386;-71
2021/12/17 04:08:26;;;;;;;27.42;18.88;;;;;;;;;;5005280;28;100803;-71
2021/12/17 04:11:17;;;;;;;27.48;17.77;;;;;;;;;;5007027;28;98650;-71
2021/12/17 04:13:52;;;;;;;29.02;20.17;;;;;;;;;;5003011;28;98987;-70
2021/12/17 04:16:23;;;;;;;30.20;17.92;;;;;;;;;;4993181;28;102165;-70
2021/12/17 04:18:50;;;;;;;30.10;19.40;;;;;;;;;;4985336;28;101787;-70
2021/12/17 04:21:19;;;;;;;29.60;17.63;;;;;;;;;;4985099;28;101606;-70
2021/12/17 04:23:46;;;;;;;31.52;18.85;;;;;;;;;;5019110;28;97872;-71
2021/12/17 04:26:15;;;;;;;32.85;20.15;;;;;;;;;;4990524;28;99476;-70
2021/12/17 04:28:48;;;;;;;33.65;18.88;;;;;;;;;;5007510;28;101736;-71
2021/12/17 04:31:18;;;;;;;33.78;19.52;;;;;;;;;;4988283;28;99343;-71
2021/12/17 04:33:45;;;;;;;29.15;17.23;;;;;;;;;;4987634;28;100875;-71
2021/12/17 04:36:15;;;;;;;23.35;13.40;;;;;;;;;;4993881;28;102051;-70
2021/12/17 04:38:42;;;;;;;22.15;15.02;;;;;;;;;;5010545;28;98667;-71
2021/12/17 04:41:38;;;;;;;29.10;16.23;;;;;;;;;;5004257;28;101586;-70
2021/12/17 04:46:48;;;;;;;38.38;19.27;;;;;;;;;;5006426;28;99372;-71
2021/12/17 04:57:34;;;;;;;18.80;11.50;;;;;;;;;;5006165;28;101542;-71
2021/12/17 05:00:07;;;;;;;21.20;12.90;;;;;;;;;;4996510;28;98598;-71
2021/12/17 05:02:42;;;;;;;21.38;12.63;;;;;;;;;;4991286;28;101686;-71
2021/12/17 05:05:10;;;;;;;16.98;10.60;;;;;;;;;;5002280;28;98752;-71
2021/12/17 05:07:47;;;;;;;18.13;11.93;;;;;;;;;;5006528;28;101923;-71
2021/12/17 05:10:25;;;;;;;13.35;9.10;;;;;;;;;;5004658;28;101638;-71
2021/12/17 05:21:01;;;;;;;14.60;11.07;;;;;;;;;;5006320;28;101519;-71
2021/12/17 05:23:36;;;;;;;14.45;9.45;;;;;;;;;;5007404;28;99734;-71
2021/12/17 05:26:06;;;;;;;14.77;8.95;;;;;;;;;;5008906;28;98687;-71
2021/12/17 05:28:37;;;;;;;11.25;8.68;;;;;;;;;;5005686;28;101767;-71
2021/12/17 05:31:05;;;;;;;12.75;9.13;;;;;;;;;;4991650;28;101173;-71
2021/12/17 05:33:38;;;;;;;10.95;8.00;;;;;;;;;;4989821;28;98667;-71
2021/12/17 05:36:04;;;;;;;12.20;7.97;;;;;;;;;;5008262;28;101915;-72
2021/12/17 05:38:32;;;;;;;11.75;7.78;;;;;;;;;;5005325;28;101759;-71
2021/12/17 05:40:59;;;;;;;12.00;8.80;;;;;;;;;;5008920;28;97871;-71
2021/12/17 05:43:37;;;;;;;14.82;8.20;;;;;;;;;;5006583;28;100728;-71
2021/12/17 05:46:10;;;;;;;18.05;8.32;;;;;;;;;;4992524;28;101886;-71
2021/12/17 05:48:36;;;;;;;18.70;8.98;;;;;;;;;;4991609;28;102107;-71
2021/12/17 05:51:04;;;;;;;13.98;7.78;;;;;;;;;;5007770;28;101688;-71
2021/12/17 05:53:31;;;;;;;20.77;9.27;;;;;;;;;;5004298;28;98928;-71
2021/12/17 05:56:00;;;;;;;25.35;11.35;;;;;;;;;;4989214;28;99164;-71
2021/12/17 05:58:39;;;;;;;24.17;10.57;;;;;;;;;;4992032;28;100366;-71
2021/12/17 06:01:05;;;;;;;26.33;10.73;;;;;;;;;;4995589;28;98672;-71
2021/12/17 06:03:43;;;;;;;30.10;13.15;;;;;;;;;;5005299;28;99291;-72
2021/12/17 06:06:11;;;;;;;30.73;11.55;;;;;;;;;;5007985;28;99716;-72
2021/12/17 06:08:38;;;;;;;40.20;12.82;;;;;;;;;;5008191;28;98592;-72
2021/12/17 06:11:06;;;;;;;39.28;13.93;;;;;;;;;;5006690;28;101632;-71
2021/12/17 06:13:32;;;;;;;34.05;13.48;;;;;;;;;;5005331;28;99986;-71
2021/12/17 06:15:58;;;;;;;40.05;12.85;;;;;;;;;;4994166;28;102340;-70
2021/12/17 06:18:27;;;;;;;33.63;13.93;;;;;;;;;;4998427;28;100350;-71
2021/12/17 06:20:53;;;;;;;36.42;12.50;;;;;;;;;;5000963;28;100020;-71
2021/12/17 06:23:20;;;;;;;30.38;10.93;;;;;;;;;;4996033;28;101608;-71
2021/12/17 06:25:46;;;;;;;38.88;11.40;;;;;;;;;;4982597;28;101805;-71
2021/12/17 06:28:14;;;;;;;31.73;11.75;;;;;;;;;;4986968;28;98638;-71
2021/12/17 06:30:42;;;;;;;35.47;12.02;;;;;;;;;;4999763;28;101744;-71
2021/12/17 06:33:17;;;;;;;38.03;10.90;;;;;;;;;;4987517;28;98847;-72
2021/12/17 06:35:43;;;;;;;43.42;13.20;;;;;;;;;;4987339;28;101341;-71
2021/12/17 06:38:10;;;;;;;34.65;11.40;;;;;;;;;;4987144;28;102962;-71
2021/12/17 06:40:38;;;;;;;28.92;11.50;;;;;;;;;;4996597;28;99951;-72
2021/12/17 06:43:04;;;;;;;36.92;11.93;;;;;;;;;;4998254;28;101257;-69
2021/12/17 06:45:53;;;;;;;34.53;12.30;;;;;;;;;;4986086;28;101262;-71
2021/12/17 06:48:24;;;;;;;40.00;13.70;;;;;;;;;;5000130;28;98664;-70
2021/12/17 07:09:39;;;;;;;33.38;13.15;;;;;;;;;;4987508;28;99089;-71
2021/12/17 07:17:19;;;;;;;33.35;13.07;;;;;;;;;;5003238;28;102084;-70
2021/12/17 07:28:01;;;;;;;24.92;12.13;;;;;;;;;;4991497;28;97817;-70
2021/12/17 07:33:21;;;;;;;20.85;10.70;;;;;;;;;;4982755;28;99475;-70
2021/12/17 07:36:10;;;;;;;25.75;10.85;;;;;;;;;;4966164;28;99807;-69
2021/12/17 07:38:39;;;;;;;29.70;12.32;;;;;;;;;;4993417;28;101070;-69
2021/12/17 07:41:26;;;;;;;23.13;10.23;;;;;;;;;;4988874;28;98630;-69
2021/12/17 07:44:01;;;;;;;24.75;11.15;;;;;;;;;;5005287;28;99417;-69
2021/12/17 07:46:32;;;;;;;26.10;11.23;;;;;;;;;;5005931;28;98549;-69
2021/12/17 07:48:58;;;;;;;23.20;10.93;;;;;;;;;;5007532;28;98951;-71
2021/12/17 07:51:25;;;;;;;23.73;10.82;;;;;;;;;;5005471;28;99528;-69
2021/12/17 07:53:56;;;;;;;30.95;10.98;;;;;;;;;;4998564;28;98557;-68
2021/12/17 07:56:24;;;;;;;22.08;10.27;;;;;;;;;;5018751;28;101616;-69
2021/12/17 07:58:56;;;;;;;22.13;10.57;;;;;;;;;;4985103;28;102784;-70
2021/12/17 08:01:23;;;;;;;22.25;11.13;;;;;;;;;;4993536;28;98546;-69
2021/12/17 08:03:51;;;;;;;21.02;10.00;;;;;;;;;;5012557;28;98980;-70
2021/12/17 08:06:44;;;;;;;23.33;9.75;;;;;;;;;;5005449;28;99460;-70
2021/12/17 08:09:19;;;;;;;24.23;9.85;;;;;;;;;;4990189;28;101264;-70
2021/12/17 08:11:54;;;;;;;16.02;8.70;;;;;;;;;;4989051;28;101759;-70
2021/12/17 08:14:22;;;;;;;15.45;9.43;;;;;;;;;;4989893;28;98614;-70
2021/12/17 08:24:56;;;;;;;16.33;9.70;;;;;;;;;;5008865;28;101107;-70
2021/12/17 08:27:32;;;;;;;20.40;10.13;;;;;;;;;;4992309;28;100710;-70
2021/12/17 08:32:49;;;;;;;16.25;8.25;;;;;;;;;;5002434;28;101879;-70
2021/12/17 08:35:17;;;;;;;11.10;7.18;;;;;;;;;;4986323;28;99267;-70
2021/12/17 08:37:46;;;;;;;14.00;8.13;;;;;;;;;;4971321;28;98941;-70
2021/12/17 08:40:12;;;;;;;16.25;8.93;;;;;;;;;;4969990;28;102104;-70
2021/12/17 08:42:48;;;;;;;15.70;9.15;;;;;;;;;;4987427;28;98551;-70
2021/12/17 08:45:15;;;;;;;17.02;9.50;;;;;;;;;;4972835;28;100859;-71
2021/12/17 08:47:48;;;;;;;16.65;9.52;;;;;;;;;;4990017;28;99652;-70
2021/12/17 08:50:37;;;;;;;21.17;10.30;;;;;;;;;;4992806;28;99673;-71
2021/12/17 08:53:05;;;;;;;18.73;10.02;;;;;;;;;;4987987;28;101987;-71
2021/12/17 08:55:32;;;;;;;20.38;10.90;;;;;;;;;;4989694;28;99290;-70
2021/12/17 08:57:59;;;;;;;21.88;11.15;;;;;;;;;;4989581;28;99288;-70
2021/12/17 09:00:25;;;;;;;20.60;10.77;;;;;;;;;;4983455;28;99819;-70
2021/12/17 09:03:01;;;;;;;22.95;11.57;;;;;;;;;;5005702;28;101185;-70
2021/12/17 09:05:46;;;;;;;18.02;10.95;;;;;;;;;;4972651;28;98693;-70
2021/12/17 09:08:20;;;;;;;23.63;11.98;;;;;;;;;;4987826;28;98487;-70
2021/12/17 09:10:55;;;;;;;18.40;10.48;;;;;;;;;;5021864;28;98624;-70
2021/12/17 09:13:26;;;;;;;20.63;11.63;;;;;;;;;;5006723;28;101878;-70
2021/12/17 09:15:59;;;;;;;19.70;10.88;;;;;;;;;;4985625;28;99405;-71
2021/12/17 09:18:29;;;;;;;18.50;11.00;;;;;;;;;;5001583;28;102421;-71
2021/12/17 09:21:05;;;;;;;24.15;12.20;;;;;;;;;;4983652;28;101424;-72
2021/12/17 09:23:51;;;;;;;24.77;12.27;;;;;;;;;;4969781;28;98661;-70
2021/12/17 09:26:18;;;;;;;25.63;12.60;;;;;;;;;;4968546;28;101743;-71
2021/12/17 09:28:45;;;;;;;20.35;12.70;;;;;;;;;;4983852;28;101685;-69
2021/12/17 09:31:12;;;;;;;20.92;12.02;;;;;;;;;;4976015;28;98632;-70
2021/12/17 09:33:40;;;;;;;12.63;8.18;;;;;;;;;;4992696;28;100275;-70
2021/12/17 09:36:06;;;;;;;10.25;7.45;;;;;;;;;;4990631;28;99339;-71
2021/12/17 09:38:33;;;;;;;16.52;9.20;;;;;;;;;;4991691;28;100314;-70
2021/12/17 09:40:59;;;;;;;17.52;9.45;;;;;;;;;;4989357;28;100208;-72
2021/12/17 09:43:27;;;;;;;12.57;7.55;;;;;;;;;;4988934;28;98764;-71
2021/12/17 09:45:53;;;;;;;16.08;10.30;;;;;;;;;;4990062;28;99990;-71
2021/12/17 09:48:20;;;;;;;17.15;10.07;;;;;;;;;;4988338;28;100549;-71
2021/12/17 09:50:47;;;;;;;16.38;10.93;;;;;;;;;;4988179;28;99132;-71
2021/12/17 09:53:13;;;;;;;17.60;10.85;;;;;;;;;;4989198;28;100403;-71
2021/12/17 09:55:39;;;;;;;13.07;9.05;;;;;;;;;;4991744;28;100412;-70
2021/12/17 09:58:06;;;;;;;17.77;10.40;;;;;;;;;;4990343;28;98580;-71
2021/12/17 10:00:32;;;;;;;18.05;10.32;;;;;;;;;;4988617;28;100469;-71
2021/12/17 10:02:59;;;;;;;20.10;11.88;;;;;;;;;;4988383;28;99645;-71
2021/12/17 10:05:28;;;;;;;14.02;9.63;;;;;;;;;;4988380;28;99849;-71
2021/12/17 10:07:59;;;;;;;17.40;9.25;;;;;;;;;;4990795;28;99587;-71
2021/12/17 10:10:42;;;;;;;14.05;9.23;;;;;;;;;;4988744;28;98743;-71
2021/12/17 10:13:08;;;;;;;13.00;8.77;;;;;;;;;;4989726;28;100684;-72
2021/12/17 10:15:36;;;;;;;15.95;9.55;;;;;;;;;;4988962;28;100643;-72
2021/12/17 10:18:03;;;;;;;10.93;7.68;;;;;;;;;;4991850;28;99171;-72
2021/12/17 10:20:31;;;;;;;10.10;7.75;;;;;;;;;;4989100;28;99476;-72
2021/12/17 10:22:59;;;;;;;11.20;7.47;;;;;;;;;;4990157;28;98351;-72
2021/12/17 10:25:27;;;;;;;9.40;7.10;;;;;;;;;;4988039;28;98755;-72
2021/12/17 10:27:59;;;;;;;11.75;7.50;;;;;;;;;;4988798;28;101389;-72
2021/12/17 10:30:26;;;;;;;9.10;6.77;;;;;;;;;;4987305;28;99575;-71
2021/12/17 10:32:54;;;;;;;9.18;6.25;;;;;;;;;;4986657;28;100048;-71
2021/12/17 10:35:21;;;;;;;9.13;6.35;;;;;;;;;;4988195;28;100247;-71
2021/12/17 10:37:57;;;;;;;7.05;6.25;;;;;;;;;;4988369;28;98476;-71
2021/12/17 10:40:28;;;;;;;7.93;6.80;;;;;;;;;;4992241;28;100079;-71
2021/12/17 10:43:00;;;;;;;9.98;7.43;;;;;;;;;;4989115;28;98527;-71
2021/12/17 10:45:29;;;;;;;10.97;7.83;;;;;;;;;;4988252;28;99135;-71
2021/12/17 10:48:02;;;;;;;7.15;6.45;;;;;;;;;;4989292;28;99254;-71
2021/12/17 10:50:29;;;;;;;7.22;5.57;;;;;;;;;;4988779;28;98575;-71
2021/12/17 10:52:58;;;;;;;8.90;6.45;;;;;;;;;;4986994;28;100127;-70
2021/12/17 10:55:25;;;;;;;8.05;6.28;;;;;;;;;;4986141;28;100972;-71
2021/12/17 10:57:57;;;;;;;6.00;5.50;;;;;;;;;;4988597;28;99300;-71
2021/12/17 11:00:24;;;;;;;4.60;4.30;;;;;;;;;;4987834;28;99953;-72
2021/12/17 11:02:50;;;;;;;3.88;3.63;;;;;;;;;;4991852;28;100285;-72
2021/12/17 11:05:18;;;;;;;4.03;3.72;;;;;;;;;;4988577;28;99968;-73
2021/12/17 11:07:45;;;;;;;4.10;3.80;;;;;;;;;;4987741;28;99510;-73
2021/12/17 11:10:12;;;;;;;4.22;3.83;;;;;;;;;;4989453;28;98800;-74
2021/12/17 11:12:43;;;;;;;4.40;3.90;;;;;;;;;;4991567;28;100396;-73
2021/12/17 11:15:17;;;;;;;4.35;3.95;;;;;;;;;;4983445;28;100568;-74
2021/12/17 11:17:46;;;;;;;6.35;4.90;;;;;;;;;;5007983;28;99062;-73
2021/12/17 11:20:14;;;;;;;4.88;4.18;;;;;;;;;;5007574;28;101117;-74
2021/12/17 11:22:41;;;;;;;7.93;4.60;;;;;;;;;;5007949;28;99717;-73
2021/12/17 11:25:08;;;;;;;5.07;4.68;;;;;;;;;;5011950;28;98955;-73
2021/12/17 11:27:35;;;;;;;4.40;4.00;;;;;;;;;;5007346;28;100069;-72
2021/12/17 11:30:04;;;;;;;7.57;4.47;;;;;;;;;;5008289;28;98757;-73
2021/12/17 11:32:30;;;;;;;4.53;4.13;;;;;;;;;;5007364;28;99874;-72
2021/12/17 11:34:58;;;;;;;6.25;5.00;;;;;;;;;;5007258;28;100403;-73
2021/12/17 11:37:25;;;;;;;7.28;4.95;;;;;;;;;;5012289;28;97792;-73
2021/12/17 11:39:54;;;;;;;6.85;5.13;;;;;;;;;;5012136;28;98446;-74
2021/12/17 11:42:24;;;;;;;7.03;5.40;;;;;;;;;;5010733;28;100277;-72
2021/12/17 11:45:22;;;;;;;10.55;6.07;;;;;;;;;;5014829;28;99303;-73
2021/12/17 11:47:38;;;;;;;7.13;5.10;;;;;;;;;;5010749;28;100077;-74
2021/12/17 11:50:06;;;;;;;5.65;4.63;;;;;;;;;;5011572;28;98595;-74
2021/12/17 11:52:33;;;;;;;5.05;4.30;;;;;;;;;;5014486;28;100445;-73
2021/12/17 11:55:18;;;;;;;5.50;4.35;;;;;;;;;;5014713;28;100357;-72
2021/12/17 11:57:44;;;;;;;4.40;3.92;;;;;;;;;;5015487;28;98606;-73
2021/12/17 12:00:14;;;;;;;4.15;3.80;;;;;;;;;;5016529;28;99991;-73
2021/12/17 12:02:48;;;;;;;4.28;3.97;;;;;;;;;;5014495;28;99525;-72
2021/12/17 12:05:35;;;;;;;3.97;3.67;;;;;;;;;;5015582;28;98458;-72
2021/12/17 12:08:20;;;;;;;4.50;3.95;;;;;;;;;;5018275;28;100218;-73
2021/12/17 12:11:02;;;;;;;4.32;3.92;;;;;;;;;;5015159;28;99292;-71
2021/12/17 12:13:42;;;;;;;4.50;4.10;;;;;;;;;;4998126;28;100635;-72
2021/12/17 12:16:10;;;;;;;3.83;3.53;;;;;;;;;;4996708;27;100264;-71
2021/12/17 12:18:55;;;;;;;3.17;3.00;;;;;;;;;;4991730;28;98637;-72
2021/12/17 12:21:22;;;;;;;2.70;2.60;;;;;;;;;;4976967;28;101063;-72
2021/12/17 12:23:56;;;;;;;5.32;2.90;;;;;;;;;;4988538;28;101404;-72
2021/12/17 12:26:24;;;;;;;2.75;2.58;;;;;;;;;;4975069;28;99966;-72
2021/12/17 12:28:56;;;;;;;3.97;2.60;;;;;;;;;;4972718;28;99914;-71
2021/12/17 12:31:22;;;;;;;3.20;2.83;;;;;;;;;;4974647;28;100772;-72
2021/12/17 12:34:05;;;;;;;2.80;2.60;;;;;;;;;;4971790;28;99958;-72
2021/12/17 12:36:42;;;;;;;3.85;3.20;;;;;;;;;;4970865;28;101143;-73
2021/12/17 12:39:35;;;;;;;3.58;3.30;;;;;;;;;;4971050;28;98746;-77
2021/12/17 12:42:05;;;;;;;2.85;2.65;;;;;;;;;;4955372;28;100157;-77
2021/12/17 12:44:46;;;;;;;3.10;2.85;;;;;;;;;;4970112;28;100298;-77
2021/12/17 12:47:33;;;;;;;3.42;3.22;;;;;;;;;;4970492;28;99304;-70
2021/12/17 12:50:02;;;;;;;2.97;2.78;;;;;;;;;;4970601;28;99249;-71
2021/12/17 12:52:29;;;;;;;3.13;2.83;;;;;;;;;;4969783;28;99688;-71
2021/12/17 12:54:57;;;;;;;3.97;3.28;;;;;;;;;;4974973;28;97850;-71
2021/12/17 12:57:24;;;;;;;3.08;2.88;;;;;;;;;;4975393;28;99350;-71
2021/12/17 12:59:52;;;;;;;3.13;2.92;;;;;;;;;;4990613;28;98897;-71
2021/12/17 13:02:19;;;;;;;3.03;2.83;;;;;;;;;;4991086;28;100816;-71
2021/12/17 13:04:46;;;;;;;3.53;2.70;;;;;;;;;;4990155;28;100719;-71
2021/12/17 13:07:15;;;;;;;2.92;2.47;;;;;;;;;;4990247;28;98695;-71
2021/12/17 13:09:44;;;;;;;3.40;3.13;;;;;;;;;;4990734;28;99338;-71
2021/12/17 13:12:10;;;;;;;2.92;2.72;;;;;;;;;;4989992;28;100270;-71
2021/12/17 13:14:46;;;;;;;3.20;2.90;;;;;;;;;;4989709;28;98840;-71
2021/12/17 13:17:41;;;;;;;4.35;3.13;;;;;;;;;;4993230;28;99893;-71
2021/12/17 13:20:31;;;;;;;4.37;3.33;;;;;;;;;;4990317;28;97979;-71
2021/12/17 13:22:58;;;;;;;2.92;2.75;;;;;;;;;;4990291;28;99249;-72
2021/12/17 13:25:25;;;;;;;4.15;3.42;;;;;;;;;;4989286;28;100198;-72
2021/12/17 13:27:53;;;;;;;3.17;2.97;;;;;;;;;;4989131;28;99400;-72
2021/12/17 13:30:23;;;;;;;3.47;3.22;;;;;;;;;;4989948;28;99856;-71
2021/12/17 13:32:51;;;;;;;2.97;2.88;;;;;;;;;;4991147;28;100278;-71
2021/12/17 13:35:17;;;;;;;3.20;2.90;;;;;;;;;;4989366;28;99260;-72
2021/12/17 13:37:44;;;;;;;3.45;3.20;;;;;;;;;;4990166;28;99895;-71
2021/12/17 13:40:12;;;;;;;5.68;3.20;;;;;;;;;;4992391;28;99909;-71
2021/12/17 13:42:42;;;;;;;2.95;2.80;;;;;;;;;;4989349;28;99910;-71
2021/12/17 13:45:10;;;;;;;3.92;3.30;;;;;;;;;;4990228;28;99826;-71
2021/12/17 13:47:37;;;;;;;3.83;3.15;;;;;;;;;;4989728;28;98523;-71
2021/12/17 13:50:10;;;;;;;3.80;3.42;;;;;;;;;;4989138;28;99990;-71
2021/12/17 13:52:53;;;;;;;3.78;3.22;;;;;;;;;;4988856;28;100993;-71
2021/12/17 13:55:21;;;;;;;3.60;3.38;;;;;;;;;;4988606;28;99418;-71
2021/12/17 13:57:48;;;;;;;4.05;3.75;;;;;;;;;;4990061;28;99975;-71
2021/12/17 14:00:20;;;;;;;9.05;4.28;;;;;;;;;;4992167;28;99268;-71
2021/12/17 14:02:47;;;;;;;3.80;3.50;;;;;;;;;;4988981;28;100033;-71
2021/12/17 14:05:29;;;;;;;4.10;3.70;;;;;;;;;;4989557;28;100313;-71
2021/12/17 14:08:00;;;;;;;3.83;3.63;;;;;;;;;;4990073;28;98546;-70
2021/12/17 14:10:28;;;;;;;4.10;3.80;;;;;;;;;;4988689;28;99909;-70
2021/12/17 14:12:54;;;;;;;3.90;3.60;;;;;;;;;;4989078;28;99754;-71
2021/12/17 14:15:41;;;;;;;4.10;3.80;;;;;;;;;;4989273;28;98582;-71
2021/12/17 14:18:08;;;;;;;3.85;3.65;;;;;;;;;;4988043;28;100000;-71
2021/12/17 14:20:39;;;;;;;4.35;4.05;;;;;;;;;;4988282;28;100242;-72
2021/12/17 14:23:06;;;;;;;5.38;4.22;;;;;;;;;;4991747;28;98972;-71
2021/12/17 14:25:35;;;;;;;5.95;4.88;;;;;;;;;;4988076;28;100232;-70
2021/12/17 14:28:08;;;;;;;4.90;4.53;;;;;;;;;;4989963;28;98598;-71
2021/12/17 14:30:35;;;;;;;5.38;4.90;;;;;;;;;;4989084;28;99939;-71
2021/12/17 14:33:06;;;;;;;5.35;5.03;;;;;;;;;;4988967;28;100548;-71
2021/12/17 14:36:08;;;;;;;5.90;5.25;;;;;;;;;;4975931;28;98611;-71
2021/12/17 14:38:36;;;;;;;6.20;5.70;;;;;;;;;;4976617;28;99238;-72
2021/12/17 14:41:03;;;;;;;8.48;5.63;;;;;;;;;;4972057;28;99705;-71
2021/12/17 14:43:39;;;;;;;8.68;5.63;;;;;;;;;;4970286;28;99300;-71
2021/12/17 14:46:15;;;;;;;7.95;6.63;;;;;;;;;;4971612;28;100801;-71
2021/12/17 15:04:45;;;;;;;9.32;6.82;;;;;;;;;;4989813;27;99354;-70
2021/12/17 15:07:11;;;;;;;10.00;7.82;;;;;;;;;;4978972;28;101407;-70
2021/12/17 15:09:42;;;;;;;9.98;8.15;;;;;;;;;;4975954;28;100328;-70
2021/12/17 15:15:00;;;;;;;10.43;7.85;;;;;;;;;;4968536;28;100554;-70
2021/12/17 15:17:27;;;;;;;11.18;8.27;;;;;;;;;;4973609;28;98548;-71
2021/12/17 15:20:14;;;;;;;12.00;8.95;;;;;;;;;;4987897;28;99010;-71
2021/12/17 15:22:41;;;;;;;13.15;8.75;;;;;;;;;;4996785;28;99739;-71
2021/12/17 15:25:08;;;;;;;11.57;8.75;;;;;;;;;;5008548;28;98542;-71
2021/12/17 15:27:35;;;;;;;13.70;9.48;;;;;;;;;;5008204;28;98984;-71
2021/12/17 15:30:07;;;;;;;12.52;9.13;;;;;;;;;;5008278;28;100813;-71
2021/12/17 15:32:33;;;;;;;11.90;8.93;;;;;;;;;;5011481;28;98959;-70
2021/12/17 15:35:00;;;;;;;14.35;9.82;;;;;;;;;;5007137;28;101637;-71
2021/12/17 15:37:26;;;;;;;13.60;10.18;;;;;;;;;;4998786;28;98625;-72
2021/12/17 15:39:53;;;;;;;12.73;10.25;;;;;;;;;;4988255;28;100011;-72
2021/12/17 15:42:19;;;;;;;15.10;10.45;;;;;;;;;;4986258;28;100589;-72
2021/12/17 15:44:45;;;;;;;13.85;9.80;;;;;;;;;;4987600;28;99187;-71
2021/12/17 15:47:12;;;;;;;15.05;10.73;;;;;;;;;;4988677;28;99961;-71
2021/12/17 15:49:39;;;;;;;16.10;11.52;;;;;;;;;;4987804;28;99909;-72
2021/12/17 15:52:07;;;;;;;19.92;11.70;;;;;;;;;;4988513;28;97862;-72
2021/12/17 15:54:37;;;;;;;17.48;12.20;;;;;;;;;;4989794;28;100348;-72
2021/12/17 15:57:04;;;;;;;13.27;11.10;;;;;;;;;;4995434;28;98715;-72
2021/12/17 15:59:31;;;;;;;12.68;10.15;;;;;;;;;;5005895;28;99316;-72
2021/12/17 16:01:57;;;;;;;17.17;11.13;;;;;;;;;;5006756;28;100089;-72
2021/12/17 16:04:24;;;;;;;15.25;11.85;;;;;;;;;;5007211;28;98565;-72
2021/12/17 16:06:51;;;;;;;16.02;12.57;;;;;;;;;;5006336;28;98785;-73
2021/12/17 16:23:12;;;;;;;23.70;14.73;;;;;;;;;;5007810;28;99450;-72
2021/12/17 16:25:38;;;;;;;27.15;15.60;;;;;;;;;;5009517;28;99332;-73
2021/12/17 16:28:05;;;;;;;24.15;15.63;;;;;;;;;;5010221;28;99723;-72
2021/12/17 16:30:39;;;;;;;22.75;15.82;;;;;;;;;;5009405;28;101049;-71
2021/12/17 16:33:05;;;;;;;30.38;15.85;;;;;;;;;;5009267;28;98623;-72
2021/12/17 16:35:32;;;;;;;26.42;15.73;;;;;;;;;;5009671;28;99674;-71
2021/12/17 16:37:58;;;;;;;22.40;16.88;;;;;;;;;;5012461;28;100547;-72
2021/12/17 16:40:25;;;;;;;19.15;12.13;;;;;;;;;;5009740;28;100232;-71
2021/12/17 16:42:54;;;;;;;14.07;11.75;;;;;;;;;;5011433;28;99988;-71
2021/12/17 16:45:30;;;;;;;15.32;12.05;;;;;;;;;;5009016;28;98807;-72
2021/12/17 16:48:02;;;;;;;15.38;12.55;;;;;;;;;;5001752;28;99280;-71
2021/12/17 16:50:29;;;;;;;17.05;12.60;;;;;;;;;;4989013;28;102456;-71
2021/12/17 16:52:55;;;;;;;17.02;13.25;;;;;;;;;;4989606;28;98987;-71
2021/12/17 16:55:23;;;;;;;36.80;17.02;;;;;;;;;;4989676;28;99557;-71
2021/12/17 16:57:50;;;;;;;20.45;13.43;;;;;;;;;;4988702;28;99529;-71
2021/12/17 17:00:16;;;;;;;22.00;15.30;;;;;;;;;;4993062;28;98643;-71
2021/12/17 17:02:42;;;;;;;13.00;11.63;;;;;;;;;;4989989;28;100301;-70
2021/12/17 17:05:10;;;;;;;13.70;10.65;;;;;;;;;;4992686;28;98575;-69
2021/12/17 17:07:36;;;;;;;14.02;11.18;;;;;;;;;;4992920;28;100602;-69
2021/12/17 17:10:03;;;;;;;9.77;8.77;;;;;;;;;;5009521;28;99550;-69
2021/12/17 17:12:31;;;;;;;14.68;7.50;;;;;;;;;;4993538;28;98997;-70
2021/12/17 17:14:57;;;;;;;8.02;7.15;;;;;;;;;;4993659;28;100144;-70
2021/12/17 17:17:24;;;;;;;8.77;7.95;;;;;;;;;;4986762;28;99544;-70
2021/12/17 17:19:50;;;;;;;7.95;7.15;;;;;;;;;;4980453;28;98601;-70
2021/12/17 17:22:18;;;;;;;7.97;6.97;;;;;;;;;;4980567;28;100462;-71
2021/12/17 17:24:44;;;;;;;7.30;6.60;;;;;;;;;;4985466;28;99161;-70
2021/12/17 17:27:11;;;;;;;8.05;7.32;;;;;;;;;;4985445;28;100047;-71
2021/12/17 17:29:37;;;;;;;6.65;5.90;;;;;;;;;;4969746;28;100294;-72
2021/12/17 17:32:04;;;;;;;6.65;6.07;;;;;;;;;;4971318;28;97923;-71
2021/12/17 17:34:30;;;;;;;7.32;6.28;;;;;;;;;;4983014;28;98966;-71
2021/12/17 17:36:57;;;;;;;7.38;5.90;;;;;;;;;;4993069;28;100101;-71
2021/12/17 17:39:24;;;;;;;6.53;4.82;;;;;;;;;;5003812;28;100759;-71
2021/12/17 17:41:50;;;;;;;5.45;4.93;;;;;;;;;;4992144;28;100906;-70
2021/12/17 17:44:17;;;;;;;5.47;5.03;;;;;;;;;;4989243;28;99801;-70
2021/12/17 17:46:43;;;;;;;6.88;5.95;;;;;;;;;;5008632;28;99863;-71
2021/12/17 17:49:10;;;;;;;6.70;6.10;;;;;;;;;;4995961;28;99443;-70
2021/12/17 17:51:36;;;;;;;10.00;8.25;;;;;;;;;;4987801;28;98747;-70
2021/12/17 17:54:02;;;;;;;8.23;5.90;;;;;;;;;;4988363;28;99978;-70